Observations for CARLISLE, United Kingdom (GNC)

KGNC 180315Z AUTO 08004KT 10SM CLR 06/M02 A3020 RMK AO2 T00601017   
KGNC 180255Z AUTO 07004KT 10SM CLR 07/M02 A3020 RMK AO2 T00661018   
KGNC 180235Z AUTO 06005KT 10SM CLR 08/M02 A3020 RMK AO2 T00771020   
KGNC 180215Z AUTO 06006KT 10SM CLR 09/M02 A3020 RMK AO2 T00861021   
KGNC 180155Z AUTO 07007KT 10SM CLR 09/M02 A3019 RMK AO2 T00901021   
KGNC 180135Z AUTO 07006KT 10SM CLR 10/M02 A3019 RMK AO2 T00951021   
KGNC 180115Z AUTO 07006KT 10SM CLR 10/M01 A3018 RMK AO2 T00971007   
KGNC 180055Z AUTO 07006KT 10SM CLR 11/00 A3018 RMK AO2 T01050000
KGNC 180035Z AUTO 09006KT 10SM CLR 11/00 A3018 RMK AO2 T01141005
KGNC 180015Z AUTO 07008KT 10SM CLR 12/M01 A3018 RMK AO2 T01231010   
KGNC 172355Z AUTO 07008KT 10SM CLR 13/M01 A3017 RMK AO2 T01311012 10166 20131   
KGNC 172335Z AUTO 07010KT 10SM CLR 14/01 A3017 RMK AO2 T01360007
KGNC 172315Z AUTO 06010KT 10SM CLR 14/01 A3016 RMK AO2 T01410007
KGNC 172255Z AUTO 05008KT 10SM CLR 15/01 A3016 RMK AO2 T01460009
KGNC 172235Z AUTO 06008KT 10SM CLR 15/01 A3016 RMK AO2 T01490010
KGNC 172215Z AUTO 05011KT 10SM CLR 16/01 A3016 RMK AO2 T01550011
KGNC 172155Z AUTO 05008KT 10SM CLR 15/01 A3016 RMK AO2 T01530010
KGNC 172135Z AUTO 05006KT 10SM CLR 15/01 A3015 RMK AO2 T01530011
KGNC 172115Z AUTO 05007KT 10SM CLR 16/01 A3015 RMK AO2 T01560009
KGNC 172055Z AUTO 04007KT 10SM CLR 16/00 A3015 RMK AO2 T01560002
KGNC 172035Z AUTO 05005KT 10SM CLR 16/00 A3015 RMK AO2 T01600000
KGNC 172015Z AUTO 06007KT 10SM CLR 17/00 A3015 RMK AO2 T01650003
KGNC 171955Z AUTO 03007KT 350V060 10SM CLR 16/01 A3015 RMK AO2 T01640009
KGNC 171935Z AUTO 03006KT 10SM CLR 16/01 A3016 RMK AO2 T01570005
KGNC 171915Z AUTO 02007KT 10SM CLR 16/00 A3016 RMK AO2 T01590003
KGNC 171855Z AUTO 33010KT 10SM CLR 16/01 A3016 RMK AO2 T01620014
KGNC 171835Z AUTO 33010KT 10SM CLR 16/02 A3016 RMK AO2 T01600019
KGNC 171815Z AUTO 31010G15KT 10SM CLR 15/06 A3016 RMK AO2 T01510058 
KGNC 171755Z AUTO 31007KT 10SM CLR 15/06 A3017 RMK AO2 T01460063 10146 20033
KGNC 171735Z AUTO 28007KT 10SM CLR 14/06 A3017 RMK AO2 T01350064
KGNC 171715Z AUTO 27007KT 10SM CLR 12/06 A3017 RMK AO2 T01200059
KGNC 171655Z AUTO 25009KT 10SM CLR 10/06 A3016 RMK AO2 T01000057
KGNC 171635Z AUTO 25010KT 10SM CLR 09/05 A3016 RMK AO2 T00870049
KGNC 171615Z AUTO 25008KT 10SM CLR 08/05 A3017 RMK AO2 T00790049
KGNC 171555Z AUTO 25006KT 10SM CLR 07/04 A3016 RMK AO2 T00670042
KGNC 171535Z AUTO 25007KT 10SM CLR 06/04 A3014 RMK AO2 T00600039
KGNC 171515Z AUTO 26005KT 10SM CLR 06/04 A3013 RMK AO2 T00560036
KGNC 171455Z AUTO 27005KT 10SM CLR 05/04 A3012 RMK AO2 T00530035
KGNC 171435Z AUTO 26005KT 10SM CLR 05/03 A3011 RMK AO2 T00480032
KGNC 171415Z AUTO 25008KT 10SM CLR 05/03 A3009 RMK AO2 T00450030
KGNC 171355Z AUTO 25007KT 10SM CLR 04/03 A3008 RMK AO2 T00400026
KGNC 171335Z AUTO 26006KT 10SM CLR 04/02 A3007 RMK AO2 T00350022
KGNC 171315Z AUTO 26006KT 10SM CLR 03/02 A3007 RMK AO2 T00330020
KGNC 171255Z AUTO 26006KT 10SM CLR 03/02 A3007 RMK AO2 T00330020
KGNC 171235Z AUTO 25007KT 10SM CLR 04/02 A3007 RMK AO2 T00350018
KGNC 171215Z AUTO 24008KT 10SM CLR 04/02 A3007 RMK AO2 T00370018
KGNC 171155Z AUTO 25007KT 10SM CLR 04/02 A3008 RMK AO2 60003 70005 T00360017 10053 20035
KGNC 171135Z AUTO 27007KT 10SM CLR 04/02 A3007 RMK AO2 T00360016
KGNC 171115Z AUTO 26008KT 10SM CLR 04/02 A3007 RMK AO2 T00370017
KGNC 171055Z AUTO 25006KT 10SM CLR 04/02 A3007 RMK AO2 T00400018
KGNC 171035Z AUTO 24006KT 10SM CLR 04/02 A3006 RMK AO2 T00410020
KGNC 171015Z AUTO 21008KT 10SM SCT120 04/02 A3005 RMK AO2 T00420022 
KGNC 170955Z AUTO 21008KT 10SM SCT100 SCT120 05/02 A3006 RMK AO2 T00450022  
KGNC 170935Z AUTO 21009KT 10SM SCT090 SCT110 05/02 A3008 RMK AO2 T00450024  
KGNC 170915Z AUTO 22007KT 10SM SCT090 SCT120 04/02 A3009 RMK AO2 T00430024  
KGNC 170855Z AUTO 21006KT 10SM SCT090 SCT120 05/03 A3010 RMK AO2 60003 T00450025
KGNC 170835Z AUTO 23004KT 10SM BKN090 BKN110 05/03 A3011 RMK AO2 T00450025  
KGNC 170815Z AUTO 22003KT 10SM RA OVC090 05/02 A3011 RMK AO2 T00450024  
KGNC 170755Z AUTO 00000KT 10SM OVC090 05/02 A3012 RMK AO2 P0001 T00450024   
KGNC 170735Z AUTO 17003KT 10SM RA OVC090 04/02 A3012 RMK AO2 T00430021  
KGNC 170715Z AUTO 16003KT 10SM RA OVC090 05/02 A3014 RMK AO2 T00450022  
KGNC 170655Z AUTO 00000KT 10SM SCT060 SCT070 OVC090 05/02 A3015 RMK AO2 P0002 T00450023 
KGNC 170635Z AUTO 00000KT 10SM RA SCT070 BKN080 BKN100 05/02 A3017 RMK AO2 P0002 T00470018  
KGNC 170615Z AUTO 00000KT 10SM -DZ SCT075 OVC090 05/01 A3020 RMK AO2 T00520014  
KGNC 170555Z AUTO 00000KT 10SM -RA SCT031 SCT044 BKN080 05/02 A3020 RMK AO2 P0002 60002 T00500017 10094 20050 401710050 
KGNC 170535Z AUTO 33003KT 10SM RA OVC055 06/00 A3021 RMK AO2 T00560003  
KGNC 170515Z AUTO 30005KT 10SM DZ OVC049 06/M02 A3023 RMK AO2 T00631018 
KGNC 170455Z AUTO 32004KT 10SM SCT047 SCT055 BKN100 07/M04 A3020 RMK AO2 T00671041  
KGNC 170435Z AUTO 00000KT 10SM BKN110 07/M04 A3016 RMK AO2 T00651041
KGNC 170415Z AUTO 10003KT 10SM OVC110 07/M04 A3014 RMK AO2 T00661037
KGNC 170355Z AUTO 00000KT 10SM BKN120 07/M04 A3014 RMK AO2 T00661037
KGNC 170335Z AUTO 10004KT 10SM SCT120 07/M04 A3015 RMK AO2 T00661040
KGNC 170315Z AUTO 10005KT 10SM CLR 07/M04 A3014 RMK AO2 T00661038   
KGNC 170255Z AUTO 11005KT 10SM CLR 07/M04 A3014 RMK AO2 T00681038   
KGNC 170235Z AUTO 11005KT 10SM CLR 07/M03 A3014 RMK AO2 T00701035